createdAt,value
2023-02-09T00:00:19.319Z,51.32
2023-02-09T00:03:06.236Z,51.27
2023-02-09T00:05:33.431Z,51.45
2023-02-09T00:08:01.735Z,51.24
2023-02-09T00:10:28.926Z,51.38
2023-02-09T00:13:14.286Z,51.32
2023-02-09T00:15:48.916Z,51.50
2023-02-09T00:18:15.753Z,51.40
2023-02-09T00:20:43.236Z,51.26
2023-02-09T00:23:11.733Z,51.45
2023-02-09T00:25:39.747Z,51.71
2023-02-09T00:28:07.139Z,51.57
2023-02-09T00:30:34.354Z,51.38
2023-02-09T00:33:01.353Z,51.60
2023-02-09T00:35:30.096Z,51.39
2023-02-09T00:37:59.550Z,51.65
2023-02-09T00:40:29.908Z,51.84
2023-02-09T00:42:56.882Z,51.73
2023-02-09T00:45:24.306Z,51.86
2023-02-09T00:47:51.226Z,52.01
2023-02-09T00:50:18.756Z,52.18
2023-02-09T00:52:45.639Z,52.12
2023-02-09T00:55:12.867Z,52.20
2023-02-09T00:57:41.121Z,52.11
2023-02-09T01:00:09.571Z,52.29
2023-02-09T01:02:36.571Z,52.27
2023-02-09T01:05:03.836Z,52.42
2023-02-09T01:07:30.936Z,52.62
2023-02-09T01:09:58.195Z,52.88
2023-02-09T01:12:25.187Z,52.70
2023-02-09T01:14:53.991Z,52.71
2023-02-09T01:17:21.009Z,52.84
2023-02-09T01:19:51.797Z,52.92
2023-02-09T01:22:18.846Z,53.19
2023-02-09T01:24:46.174Z,53.05
2023-02-09T01:27:13.271Z,53.33
2023-02-09T01:29:40.874Z,53.00
2023-02-09T01:32:09.175Z,52.98
2023-02-09T01:34:36.778Z,52.82
2023-02-09T01:37:04.132Z,53.23
2023-02-09T01:39:31.366Z,53.36
2023-02-09T01:41:58.346Z,53.30
2023-02-09T01:45:02.768Z,53.30
2023-02-09T01:47:36.339Z,53.33
2023-02-09T01:50:04.145Z,53.17
2023-02-09T01:52:31.227Z,53.71
2023-02-09T01:55:02.294Z,53.63
2023-02-09T01:57:32.023Z,53.83
2023-02-09T02:00:05.249Z,54.03
2023-02-09T02:02:33.792Z,54.23
2023-02-09T02:05:01.327Z,54.29
2023-02-09T02:07:36.187Z,54.13
2023-02-09T02:10:03.471Z,54.20
2023-02-09T02:12:32.569Z,54.23
2023-02-09T02:14:59.846Z,54.45
2023-02-09T02:17:40.743Z,54.41
2023-02-09T02:20:47.640Z,54.56
2023-02-09T02:23:24.198Z,54.71
2023-02-09T02:26:30.205Z,54.73
2023-02-09T02:29:24.622Z,54.79
2023-02-09T02:32:12.569Z,54.59
2023-02-09T02:34:45.602Z,54.99
2023-02-09T02:37:26.013Z,54.76
2023-02-09T02:40:03.184Z,54.57
2023-02-09T02:42:49.332Z,54.89
2023-02-09T02:45:23.601Z,55.09
2023-02-09T02:47:58.478Z,55.04
2023-02-09T02:50:31.397Z,54.95
2023-02-09T02:53:03.228Z,54.98
2023-02-09T02:55:32.728Z,55.17
2023-02-09T02:58:06.201Z,55.25
2023-02-09T03:00:39.539Z,54.90
2023-02-09T03:03:11.978Z,54.96
2023-02-09T03:05:39.330Z,55.00
2023-02-09T03:08:06.618Z,54.90
2023-02-09T03:10:35.845Z,54.80
2023-02-09T03:13:29.130Z,54.96
2023-02-09T03:16:07.719Z,55.00
2023-02-09T03:18:46.850Z,54.95
2023-02-09T03:21:19.063Z,54.93
2023-02-09T03:23:54.610Z,54.89
2023-02-09T03:26:28.143Z,54.57
2023-02-09T03:28:58.894Z,54.70
2023-02-09T03:31:28.141Z,54.91
2023-02-09T03:33:58.496Z,54.94
2023-02-09T03:36:31.447Z,55.26
2023-02-09T03:38:58.621Z,55.08
2023-02-09T03:41:25.622Z,55.00
2023-02-09T03:44:11.414Z,55.18
2023-02-09T03:46:38.419Z,55.12
2023-02-09T03:49:07.116Z,55.09
2023-02-09T03:51:34.072Z,54.85
2023-02-09T03:54:01.396Z,54.91
2023-02-09T03:56:28.404Z,54.90
2023-02-09T03:58:55.620Z,55.02
2023-02-09T04:01:22.557Z,54.56
2023-02-09T04:03:50.178Z,55.00
2023-02-09T04:06:18.663Z,54.92
2023-02-09T04:08:45.907Z,54.96
2023-02-09T04:11:12.750Z,54.94
2023-02-09T04:13:40.086Z,54.80
2023-02-09T04:16:07.359Z,54.91
2023-02-09T04:18:34.536Z,54.78
2023-02-09T04:21:01.580Z,54.88
2023-02-09T04:23:32.324Z,54.77
2023-02-09T04:26:01.676Z,54.84
2023-02-09T04:28:29.094Z,55.04
2023-02-09T04:30:56.631Z,55.29
2023-02-09T04:33:28.028Z,55.41
2023-02-09T04:35:55.531Z,55.17
2023-02-09T04:38:25.912Z,55.28
2023-02-09T04:40:55.545Z,55.03
2023-02-09T04:43:25.795Z,55.24
2023-02-09T04:45:53.070Z,55.00
2023-02-09T04:48:22.574Z,55.13
2023-02-09T04:50:49.760Z,54.86
2023-02-09T04:53:17.158Z,54.86
2023-02-09T04:55:45.477Z,55.07
2023-02-09T04:58:34.834Z,55.01
2023-02-09T05:01:02.047Z,55.60
2023-02-09T05:03:29.916Z,55.61
2023-02-09T05:05:58.225Z,55.40
2023-02-09T05:08:25.781Z,55.34
2023-02-09T05:10:53.816Z,55.37
2023-02-09T05:13:24.460Z,55.68
2023-02-09T05:15:51.818Z,55.61
2023-02-09T05:18:19.476Z,55.77
2023-02-09T05:20:48.094Z,55.64
2023-02-09T05:23:15.408Z,55.49
2023-02-09T05:25:42.468Z,55.49
2023-02-09T05:28:09.891Z,55.54
2023-02-09T05:30:38.209Z,55.51
2023-02-09T05:33:05.405Z,55.49
2023-02-09T05:35:32.347Z,55.55
2023-02-09T05:37:59.521Z,55.65
2023-02-09T05:40:26.409Z,55.68
2023-02-09T05:42:53.821Z,55.82
2023-02-09T05:45:20.908Z,55.98
2023-02-09T05:47:49.554Z,55.94
2023-02-09T05:50:16.824Z,55.80
2023-02-09T05:52:45.100Z,55.93
2023-02-09T05:55:12.187Z,55.75
2023-02-09T05:57:39.729Z,55.79
2023-02-09T06:00:07.694Z,55.65
2023-02-09T06:02:35.131Z,55.46
2023-02-09T06:05:04.193Z,55.60
2023-02-09T06:07:31.323Z,55.31
2023-02-09T06:09:58.296Z,54.83
2023-02-09T06:12:25.767Z,54.44
2023-02-09T06:14:52.682Z,54.27
2023-02-09T06:17:19.900Z,53.62
2023-02-09T06:19:46.929Z,53.49
2023-02-09T06:22:15.503Z,53.00
2023-02-09T06:24:42.706Z,52.23
2023-02-09T06:27:11.746Z,52.28
2023-02-09T06:29:38.728Z,51.61
2023-02-09T06:32:06.427Z,51.99
2023-02-09T06:34:33.859Z,51.47
2023-02-09T06:37:00.899Z,50.96
2023-02-09T06:39:29.954Z,50.59
2023-02-09T06:41:56.906Z,50.56
2023-02-09T06:44:24.166Z,50.12
2023-02-09T06:46:51.072Z,50.30
2023-02-09T06:49:18.955Z,48.98
2023-02-09T06:51:46.089Z,49.46
2023-02-09T06:54:13.698Z,50.30
2023-02-09T06:56:42.011Z,49.85
2023-02-09T06:59:09.235Z,49.51
2023-02-09T07:01:37.398Z,49.46
2023-02-09T07:04:04.872Z,49.06
2023-02-09T07:06:31.805Z,48.94
2023-02-09T07:08:58.999Z,49.72
2023-02-09T07:11:26.203Z,48.69
2023-02-09T07:13:55.043Z,48.88
2023-02-09T07:16:22.196Z,49.54
2023-02-09T07:18:50.209Z,49.16
2023-02-09T07:21:19.946Z,49.77
2023-02-09T07:23:47.997Z,49.79
2023-02-09T07:26:17.163Z,49.31
2023-02-09T07:28:44.938Z,49.96
2023-02-09T07:31:15.922Z,49.71
2023-02-09T07:33:45.059Z,49.64
2023-02-09T07:36:13.760Z,49.66
2023-02-09T07:38:41.419Z,49.55
2023-02-09T07:41:13.818Z,49.58
2023-02-09T07:43:41.317Z,48.86
2023-02-09T07:46:09.022Z,48.63
2023-02-09T07:48:37.892Z,49.18
2023-02-09T07:51:05.456Z,48.87
2023-02-09T07:53:33.327Z,47.38
2023-02-09T07:56:00.308Z,47.72
2023-02-09T07:58:27.693Z,47.74
2023-02-09T08:00:54.624Z,48.66
2023-02-09T08:03:24.184Z,48.69
2023-02-09T08:05:58.460Z,48.40
2023-02-09T08:08:25.961Z,48.31
2023-02-09T08:10:54.527Z,48.43
2023-02-09T08:13:22.982Z,48.05
2023-02-09T08:15:53.312Z,48.34
2023-02-09T08:18:27.797Z,48.28
2023-02-09T08:20:56.199Z,48.18
2023-02-09T08:23:31.863Z,47.88
2023-02-09T08:26:01.855Z,47.01
2023-02-09T08:28:42.832Z,47.09
2023-02-09T08:31:10.563Z,46.65
2023-02-09T08:33:38.015Z,46.70
2023-02-09T08:36:07.064Z,47.47
2023-02-09T08:38:34.658Z,45.73
2023-02-09T08:41:04.624Z,46.64
2023-02-09T08:43:32.903Z,46.63
2023-02-09T08:46:03.156Z,46.98
2023-02-09T08:48:35.805Z,46.38
2023-02-09T08:51:03.696Z,45.97
2023-02-09T08:53:36.088Z,46.23
2023-02-09T08:56:03.759Z,49.59
2023-02-09T08:58:33.915Z,51.40
2023-02-09T09:01:01.166Z,47.62
2023-02-09T09:03:31.567Z,46.60
2023-02-09T09:05:59.937Z,45.59
2023-02-09T09:08:28.288Z,44.65
2023-02-09T09:10:56.686Z,45.44
2023-02-09T09:13:24.796Z,46.13
2023-02-09T09:15:52.675Z,45.38
2023-02-09T09:18:19.936Z,45.37
2023-02-09T09:20:47.223Z,44.32
2023-02-09T09:23:14.634Z,43.97
2023-02-09T09:25:42.040Z,44.15
2023-02-09T09:28:11.348Z,45.86
2023-02-09T09:30:38.713Z,46.21
2023-02-09T09:33:06.079Z,47.35
2023-02-09T09:35:33.540Z,47.84
2023-02-09T09:38:04.764Z,49.99
2023-02-09T09:40:35.696Z,47.88
2023-02-09T09:43:05.755Z,47.51
2023-02-09T09:45:39.705Z,46.92
2023-02-09T09:48:19.892Z,47.34
2023-02-09T09:50:47.204Z,48.04
2023-02-09T09:53:24.513Z,46.77
2023-02-09T09:55:55.441Z,47.39
2023-02-09T09:58:22.810Z,47.43
2023-02-09T10:00:51.869Z,47.64
2023-02-09T10:03:21.414Z,47.44
2023-02-09T10:05:51.719Z,46.97
2023-02-09T10:08:26.172Z,44.42
2023-02-09T10:10:58.081Z,45.35
2023-02-09T10:13:27.234Z,44.95
2023-02-09T10:15:57.197Z,44.25
2023-02-09T10:18:27.656Z,43.29
2023-02-09T10:20:56.833Z,42.19
2023-02-09T10:23:24.861Z,47.59
2023-02-09T10:25:58.748Z,48.30
2023-02-09T10:28:27.665Z,46.81
2023-02-09T10:30:58.892Z,46.00
2023-02-09T10:33:27.101Z,46.55
2023-02-09T10:35:57.564Z,44.38
2023-02-09T10:38:32.712Z,41.02
2023-02-09T10:41:02.742Z,41.92
2023-02-09T10:43:32.541Z,41.33
2023-02-09T10:46:03.519Z,41.42
2023-02-09T10:48:41.154Z,38.19
2023-02-09T10:51:14.585Z,39.54
2023-02-09T10:53:58.981Z,40.55
2023-02-09T10:56:28.343Z,40.88
2023-02-09T10:59:02.548Z,41.86
2023-02-09T11:01:33.102Z,43.05
2023-02-09T11:04:20.450Z,43.63
2023-02-09T11:06:52.791Z,43.74
2023-02-09T11:09:25.110Z,44.03
2023-02-09T11:11:52.729Z,42.75
2023-02-09T11:14:22.486Z,43.06
2023-02-09T11:17:15.817Z,42.86
2023-02-09T11:20:04.798Z,42.97
2023-02-09T11:22:51.363Z,43.05
2023-02-09T11:25:23.310Z,42.94
2023-02-09T11:28:24.186Z,43.17
2023-02-09T11:31:09.725Z,42.94
2023-02-09T11:33:48.974Z,42.80
2023-02-09T11:36:31.141Z,43.44
2023-02-09T11:39:01.585Z,42.82
2023-02-09T11:41:51.464Z,42.32
2023-02-09T11:44:27.865Z,42.27
2023-02-09T11:47:06.124Z,43.47
2023-02-09T11:49:44.490Z,42.19
2023-02-09T11:52:18.302Z,41.31
2023-02-09T11:54:50.375Z,41.10
2023-02-09T11:57:30.219Z,41.72
2023-02-09T12:00:02.356Z,41.94
2023-02-09T12:02:46.345Z,42.13
2023-02-09T12:05:19.130Z,42.04
2023-02-09T12:08:05.725Z,41.42
2023-02-09T12:10:41.410Z,41.41
2023-02-09T12:13:20.673Z,41.61
2023-02-09T12:15:52.310Z,41.13
2023-02-09T12:18:23.039Z,41.74
2023-02-09T12:20:54.034Z,41.58
2023-02-09T12:23:31.812Z,42.23
2023-02-09T12:26:00.631Z,42.78
2023-02-09T12:28:46.449Z,42.88
2023-02-09T12:31:25.090Z,42.56
2023-02-09T12:34:29.877Z,42.48
2023-02-09T12:37:27.303Z,49.82
2023-02-09T12:40:21.123Z,43.77
2023-02-09T12:43:14.147Z,42.76
2023-02-09T12:45:43.038Z,43.13
2023-02-09T12:48:17.594Z,43.52
2023-02-09T12:50:54.154Z,42.67
2023-02-09T12:53:50.537Z,41.66
2023-02-09T12:56:33.853Z,41.71
2023-02-09T12:59:23.907Z,41.12
2023-02-09T13:02:24.031Z,40.94
2023-02-09T13:05:01.075Z,40.48
2023-02-09T13:07:43.253Z,40.45
2023-02-09T13:10:26.591Z,39.88
2023-02-09T13:12:58.732Z,40.38
2023-02-09T13:15:31.793Z,39.84
2023-02-09T13:18:07.635Z,39.41
2023-02-09T13:20:59.390Z,39.04
2023-02-09T13:23:50.364Z,39.28
2023-02-09T13:26:22.780Z,39.80
2023-02-09T13:29:19.393Z,40.69
2023-02-09T13:32:03.975Z,39.58
2023-02-09T13:34:37.764Z,39.35
2023-02-09T13:37:27.887Z,39.22
2023-02-09T13:40:02.899Z,39.46
2023-02-09T13:42:36.601Z,40.40
2023-02-09T13:45:16.093Z,39.16
2023-02-09T13:47:43.579Z,39.56
2023-02-09T13:50:15.471Z,38.67
2023-02-09T13:52:42.982Z,39.34
2023-02-09T13:55:12.662Z,40.05
2023-02-09T13:57:43.699Z,38.63
2023-02-09T14:00:21.808Z,38.90
2023-02-09T14:02:53.350Z,38.93
2023-02-09T14:05:30.440Z,37.67
2023-02-09T14:07:58.610Z,38.65
2023-02-09T14:10:27.840Z,38.45
2023-02-09T14:13:00.761Z,39.06
2023-02-09T14:15:53.390Z,38.80
2023-02-09T14:18:24.325Z,38.59
2023-02-09T14:21:21.296Z,38.21
2023-02-09T14:24:02.695Z,38.92
2023-02-09T14:26:33.886Z,39.39
2023-02-09T14:29:16.273Z,39.24
2023-02-09T14:31:46.248Z,39.39
2023-02-09T14:34:30.087Z,39.23
2023-02-09T14:36:59.041Z,38.88
2023-02-09T14:39:28.073Z,39.59
2023-02-09T14:41:57.450Z,39.81
2023-02-09T14:44:26.954Z,39.74
2023-02-09T14:46:55.684Z,39.95
2023-02-09T14:49:23.987Z,39.67
2023-02-09T14:52:02.804Z,39.46
2023-02-09T14:54:31.010Z,40.23
2023-02-09T14:57:00.880Z,39.82
2023-02-09T14:59:30.275Z,40.52
2023-02-09T15:01:57.108Z,39.98
2023-02-09T15:04:24.739Z,40.46
2023-02-09T15:07:01.726Z,40.08
2023-02-09T15:09:34.849Z,40.48
2023-02-09T15:12:05.399Z,40.80
2023-02-09T15:14:45.788Z,40.75
2023-02-09T15:17:15.668Z,40.76
2023-02-09T15:19:43.247Z,41.05
2023-02-09T15:22:13.688Z,41.18
2023-02-09T15:24:41.810Z,40.64
2023-02-09T15:27:22.861Z,41.00
2023-02-09T15:29:51.484Z,41.44
2023-02-09T15:32:23.427Z,41.68
2023-02-09T15:34:51.980Z,41.14
2023-02-09T15:37:24.533Z,41.53
2023-02-09T15:39:55.489Z,41.61
2023-02-09T15:42:41.068Z,41.91
2023-02-09T15:45:40.560Z,41.60
2023-02-09T15:48:08.607Z,42.08
2023-02-09T15:50:39.008Z,42.41
2023-02-09T15:53:09.408Z,42.00
2023-02-09T15:55:38.010Z,42.08
2023-02-09T15:58:12.958Z,42.50
2023-02-09T16:00:42.126Z,42.78
2023-02-09T16:03:15.222Z,43.11
2023-02-09T16:05:42.616Z,43.17
2023-02-09T16:08:17.840Z,42.75
2023-02-09T16:10:47.007Z,42.75
2023-02-09T16:13:14.223Z,43.25
2023-02-09T16:15:43.262Z,42.95
2023-02-09T16:18:10.572Z,42.93
2023-02-09T16:20:38.919Z,43.15
2023-02-09T16:23:19.838Z,42.95
2023-02-09T16:25:48.592Z,42.98
2023-02-09T16:28:15.800Z,43.22
2023-02-09T16:30:52.975Z,43.13
2023-02-09T16:33:21.540Z,43.90
2023-02-09T16:35:53.280Z,43.63
2023-02-09T16:38:22.367Z,43.77
2023-02-09T16:40:50.088Z,43.82
2023-02-09T16:43:17.598Z,43.87
2023-02-09T16:46:02.462Z,43.86
2023-02-09T16:48:34.902Z,43.80
2023-02-09T16:51:02.471Z,43.78
2023-02-09T16:53:32.984Z,47.75
2023-02-09T16:56:01.062Z,46.30
2023-02-09T16:58:28.934Z,47.61
2023-02-09T17:00:57.618Z,48.12
2023-02-09T17:03:33.457Z,49.92
2023-02-09T17:06:02.318Z,50.17
2023-02-09T17:08:34.615Z,50.15
2023-02-09T17:11:04.328Z,50.02
2023-02-09T17:13:31.655Z,49.71
2023-02-09T17:16:01.884Z,49.58
2023-02-09T17:18:34.044Z,50.23
2023-02-09T17:21:04.330Z,51.92
2023-02-09T17:23:31.713Z,50.68
2023-02-09T17:25:59.440Z,50.35
2023-02-09T17:28:28.388Z,49.82
2023-02-09T17:30:58.959Z,49.60
2023-02-09T17:33:28.612Z,48.92
2023-02-09T17:38:47.337Z,48.32
2023-02-09T17:41:25.609Z,48.24
2023-02-09T17:43:53.678Z,48.07
2023-02-09T17:46:21.124Z,48.32
2023-02-09T17:48:48.683Z,48.16
2023-02-09T17:51:22.200Z,47.98
2023-02-09T17:53:50.492Z,47.94
2023-02-09T17:56:19.350Z,47.87
2023-02-09T17:58:47.293Z,48.26
2023-02-09T18:01:25.300Z,48.24
2023-02-09T18:03:53.758Z,48.71
2023-02-09T18:06:33.418Z,48.39
2023-02-09T18:09:01.126Z,48.49
2023-02-09T18:11:44.025Z,48.53
2023-02-09T18:14:13.021Z,48.43
2023-02-09T18:16:41.397Z,48.37
2023-02-09T18:19:08.457Z,48.16
2023-02-09T18:21:37.325Z,48.24
2023-02-09T18:24:06.018Z,48.22
2023-02-09T18:26:33.568Z,48.65
2023-02-09T18:29:01.549Z,48.47
2023-02-09T18:31:28.803Z,48.52
2023-02-09T18:33:58.399Z,48.54
2023-02-09T18:36:25.760Z,48.75
2023-02-09T18:38:54.962Z,49.04
2023-02-09T18:41:23.766Z,48.73
2023-02-09T18:43:52.203Z,48.85
2023-02-09T18:46:24.471Z,48.90
2023-02-09T18:48:51.727Z,49.26
2023-02-09T18:51:27.024Z,49.28
2023-02-09T18:53:57.957Z,49.32
2023-02-09T18:56:26.849Z,49.43
2023-02-09T18:58:56.559Z,49.54
2023-02-09T19:01:24.632Z,49.46
2023-02-09T19:03:55.456Z,48.85
2023-02-09T19:06:22.852Z,49.64
2023-02-09T19:08:50.639Z,49.37
2023-02-09T19:11:21.208Z,49.08
2023-02-09T19:14:09.384Z,49.35
2023-02-09T19:16:41.112Z,49.24
2023-02-09T19:19:13.581Z,49.61
2023-02-09T19:21:40.855Z,49.60
2023-02-09T19:24:08.111Z,49.67
2023-02-09T19:26:36.870Z,50.03
2023-02-09T19:29:04.109Z,49.70
2023-02-09T19:31:31.403Z,49.68
2023-02-09T19:33:58.387Z,49.76
2023-02-09T19:36:28.241Z,49.92
2023-02-09T19:38:55.642Z,49.99
2023-02-09T19:41:26.266Z,50.07
2023-02-09T19:43:57.293Z,50.21
2023-02-09T19:46:26.930Z,50.29
2023-02-09T19:48:55.504Z,50.60
2023-02-09T19:51:25.387Z,49.96
2023-02-09T19:53:54.077Z,50.64
2023-02-09T19:56:24.442Z,50.44
2023-02-09T19:58:51.811Z,50.30
2023-02-09T20:01:21.258Z,50.42
2023-02-09T20:03:49.566Z,50.63
2023-02-09T20:06:18.309Z,50.27
2023-02-09T20:08:45.491Z,50.56
2023-02-09T20:11:16.826Z,50.79
2023-02-09T20:13:44.374Z,50.61
2023-02-09T20:16:16.929Z,50.88
2023-02-09T20:18:48.655Z,51.07
2023-02-09T20:21:18.294Z,51.66
2023-02-09T20:23:46.758Z,51.30
2023-02-09T20:26:17.153Z,51.23
2023-02-09T20:28:44.118Z,51.25
2023-02-09T20:31:11.318Z,51.77
2023-02-09T20:33:39.483Z,51.09
2023-02-09T20:36:09.557Z,51.30
2023-02-09T20:38:37.787Z,50.64
2023-02-09T20:41:08.744Z,50.80
2023-02-09T20:43:54.704Z,50.47
2023-02-09T20:47:00.568Z,50.62
2023-02-09T20:49:31.351Z,50.16
2023-02-09T20:52:01.616Z,50.91
2023-02-09T20:54:29.496Z,51.10
2023-02-09T20:56:56.628Z,51.12
2023-02-09T20:59:24.006Z,51.30
2023-02-09T21:01:51.247Z,51.33
2023-02-09T21:04:18.598Z,50.83
2023-02-09T21:06:46.083Z,51.15
2023-02-09T21:09:15.845Z,51.53
2023-02-09T21:11:43.102Z,51.55
2023-02-09T21:14:21.665Z,51.87
2023-02-09T21:16:56.214Z,51.46
2023-02-09T21:19:24.258Z,51.63
2023-02-09T21:21:51.545Z,51.21
2023-02-09T21:24:20.133Z,51.26
2023-02-09T21:26:47.380Z,51.38
2023-02-09T21:29:14.778Z,51.01
2023-02-09T21:31:42.345Z,50.89
2023-02-09T21:34:13.734Z,50.60
2023-02-09T21:36:40.995Z,51.18
2023-02-09T21:39:08.188Z,51.25
2023-02-09T21:41:55.385Z,50.64
2023-02-09T21:44:22.281Z,49.86
2023-02-09T21:46:50.271Z,50.19
2023-02-09T21:49:17.203Z,49.72
2023-02-09T21:51:45.046Z,50.66
2023-02-09T21:54:13.105Z,49.97
2023-02-09T21:56:42.279Z,50.11
2023-02-09T21:59:12.212Z,49.99
2023-02-09T22:01:40.760Z,49.37
2023-02-09T22:04:08.071Z,49.28
2023-02-09T22:06:35.368Z,49.20
2023-02-09T22:09:03.682Z,49.13
2023-02-09T22:11:33.135Z,48.76
2023-02-09T22:14:01.275Z,48.84
2023-02-09T22:16:30.175Z,48.89
2023-02-09T22:18:58.489Z,48.47
2023-02-09T22:21:26.131Z,48.46
2023-02-09T22:23:54.022Z,48.26
2023-02-09T22:26:21.281Z,48.86
2023-02-09T22:28:48.775Z,48.52
2023-02-09T22:31:20.021Z,48.63
2023-02-09T22:33:47.254Z,48.82
2023-02-09T22:36:16.667Z,48.62
2023-02-09T22:38:46.725Z,48.62
2023-02-09T22:41:21.931Z,47.97
2023-02-09T22:43:50.888Z,47.84
2023-02-09T22:46:22.479Z,47.80
2023-02-09T22:48:53.427Z,48.28
2023-02-09T22:51:21.426Z,47.51
2023-02-09T22:53:48.559Z,47.57
2023-02-09T22:56:16.153Z,47.61
2023-02-09T22:58:43.558Z,48.17
2023-02-09T23:01:11.348Z,48.19
2023-02-09T23:03:40.347Z,48.10
2023-02-09T23:06:10.673Z,48.38
2023-02-09T23:08:37.550Z,48.50
2023-02-09T23:11:07.140Z,48.68
2023-02-09T23:13:35.920Z,49.34
2023-02-09T23:16:06.919Z,49.52
2023-02-09T23:18:34.047Z,49.43
2023-02-09T23:21:03.588Z,49.65
2023-02-09T23:23:30.719Z,49.65
2023-02-09T23:25:58.145Z,49.63
2023-02-09T23:28:25.421Z,49.92
2023-02-09T23:30:53.903Z,49.95
2023-02-09T23:33:21.149Z,50.17
2023-02-09T23:35:48.497Z,50.21
2023-02-09T23:38:17.972Z,50.02
2023-02-09T23:40:45.270Z,49.57
2023-02-09T23:43:12.290Z,49.65
2023-02-09T23:45:39.487Z,49.74
2023-02-09T23:48:06.650Z,50.05
2023-02-09T23:50:33.913Z,49.74
2023-02-09T23:53:00.815Z,49.74
2023-02-09T23:55:29.585Z,49.92
2023-02-09T23:57:56.462Z,49.95
